createdAt,value
2023-01-15T00:01:31.889Z,100.00
2023-01-15T00:03:59.713Z,100.00
2023-01-15T00:06:27.996Z,100.00
2023-01-15T00:08:55.207Z,100.00
2023-01-15T00:11:22.778Z,100.00
2023-01-15T00:13:50.544Z,100.00
2023-01-15T00:16:20.077Z,100.00
2023-01-15T00:18:58.167Z,100.00
2023-01-15T00:21:26.846Z,100.00
2023-01-15T00:23:55.834Z,100.00
2023-01-15T00:26:28.383Z,100.00
2023-01-15T00:28:54.991Z,100.00
2023-01-15T00:31:21.581Z,100.00
2023-01-15T00:33:48.210Z,100.00
2023-01-15T00:36:14.858Z,100.00
2023-01-15T00:38:41.456Z,100.00
2023-01-15T00:41:08.059Z,100.00
2023-01-15T00:43:34.677Z,100.00
2023-01-15T00:46:01.258Z,100.00
2023-01-15T00:48:27.852Z,100.00
2023-01-15T00:50:54.506Z,100.00
2023-01-15T00:53:21.112Z,100.00
2023-01-15T00:55:47.701Z,100.00
2023-01-15T00:58:14.328Z,100.00
2023-01-15T01:00:40.984Z,100.00
2023-01-15T01:03:07.613Z,100.00
2023-01-15T01:05:34.263Z,100.00
2023-01-15T01:08:00.948Z,100.00
2023-01-15T01:10:28.362Z,100.00
2023-01-15T01:12:55.041Z,100.00
2023-01-15T01:15:22.720Z,100.00
2023-01-15T01:17:49.550Z,100.00
2023-01-15T01:20:17.727Z,100.00
2023-01-15T01:22:44.776Z,100.00
2023-01-15T01:25:11.352Z,100.00
2023-01-15T01:27:37.964Z,100.00
2023-01-15T01:30:05.065Z,100.00
2023-01-15T01:32:31.658Z,100.00
2023-01-15T01:34:58.285Z,100.00
2023-01-15T01:37:24.915Z,100.00
2023-01-15T01:39:51.536Z,100.00
2023-01-15T01:42:18.531Z,100.00
2023-01-15T01:44:45.127Z,100.00
2023-01-15T01:47:17.570Z,100.00
2023-01-15T01:49:47.472Z,100.00
2023-01-15T01:52:21.832Z,100.00
2023-01-15T01:54:50.001Z,100.00
2023-01-15T01:57:18.972Z,100.00
2023-01-15T01:59:45.705Z,100.00
2023-01-15T02:02:13.220Z,100.00
2023-01-15T02:04:40.985Z,100.00
2023-01-15T02:07:07.678Z,100.00
2023-01-15T02:09:34.344Z,100.00
2023-01-15T02:12:14.832Z,100.00
2023-01-15T02:14:58.873Z,100.00
2023-01-15T02:18:06.378Z,100.00
2023-01-15T02:20:39.838Z,100.00
2023-01-15T02:23:25.306Z,100.00
2023-01-15T02:26:10.405Z,100.00
2023-01-15T02:28:42.045Z,100.00
2023-01-15T02:31:14.783Z,100.00
2023-01-15T02:33:51.814Z,100.00
2023-01-15T02:36:23.360Z,100.00
2023-01-15T02:38:55.161Z,100.00
2023-01-15T02:41:27.226Z,100.00
2023-01-15T02:43:57.460Z,100.00
2023-01-15T02:46:29.814Z,100.00
2023-01-15T02:48:59.760Z,100.00
2023-01-15T02:51:51.685Z,100.00
2023-01-15T02:54:20.307Z,100.00
2023-01-15T02:56:49.899Z,100.00
2023-01-15T02:59:31.252Z,100.00
2023-01-15T03:02:01.719Z,100.00
2023-01-15T03:04:32.716Z,100.00
2023-01-15T03:07:05.920Z,100.00
2023-01-15T03:09:33.819Z,100.00
2023-01-15T03:12:16.282Z,100.00
2023-01-15T03:15:09.441Z,100.00
2023-01-15T03:18:02.311Z,100.00
2023-01-15T03:20:33.337Z,100.00
2023-01-15T03:23:10.207Z,100.00
2023-01-15T03:25:43.030Z,100.00
2023-01-15T03:28:12.599Z,100.00
2023-01-15T03:30:39.462Z,100.00
2023-01-15T03:33:07.944Z,100.00
2023-01-15T03:35:52.038Z,100.00
2023-01-15T03:38:23.282Z,100.00
2023-01-15T03:41:17.713Z,100.00
2023-01-15T03:44:02.464Z,100.00
2023-01-15T03:46:51.153Z,100.00
2023-01-15T03:49:37.817Z,100.00
2023-01-15T03:52:28.530Z,100.00
2023-01-15T03:55:12.140Z,100.00
2023-01-15T03:57:54.943Z,100.00
2023-01-15T04:00:30.957Z,100.00
2023-01-15T04:03:00.540Z,100.00
2023-01-15T04:05:28.847Z,100.00
2023-01-15T04:07:58.151Z,100.00
2023-01-15T04:10:24.891Z,100.00
2023-01-15T04:12:51.554Z,100.00
2023-01-15T04:15:18.546Z,100.00
2023-01-15T04:17:45.278Z,100.00
2023-01-15T04:20:12.459Z,100.00
2023-01-15T04:22:39.147Z,100.00
2023-01-15T04:25:06.966Z,100.00
2023-01-15T04:27:33.808Z,100.00
2023-01-15T04:30:00.720Z,100.00
2023-01-15T04:32:27.433Z,100.00
2023-01-15T04:34:54.046Z,100.00
2023-01-15T04:37:20.637Z,100.00
2023-01-15T04:39:47.904Z,100.00
2023-01-15T04:42:15.128Z,100.00
2023-01-15T04:44:41.781Z,100.00
2023-01-15T04:47:08.607Z,100.00
2023-01-15T04:49:35.593Z,100.00
2023-01-15T04:52:02.299Z,100.00
2023-01-15T04:54:29.135Z,100.00
2023-01-15T04:56:55.833Z,100.00
2023-01-15T04:59:25.582Z,100.00
2023-01-15T05:02:03.271Z,100.00
2023-01-15T05:04:31.350Z,100.00
2023-01-15T05:06:58.005Z,100.00
2023-01-15T05:09:24.598Z,100.00
2023-01-15T05:11:51.199Z,100.00
2023-01-15T05:14:17.945Z,100.00
2023-01-15T05:16:44.753Z,100.00
2023-01-15T05:19:11.478Z,100.00
2023-01-15T05:21:42.066Z,100.00
2023-01-15T05:24:13.299Z,100.00
2023-01-15T05:26:40.335Z,100.00
2023-01-15T05:29:07.018Z,100.00
2023-01-15T05:31:33.796Z,100.00
2023-01-15T05:34:00.609Z,100.00
2023-01-15T05:36:30.323Z,100.00
2023-01-15T05:38:58.192Z,100.00
2023-01-15T05:41:24.766Z,100.00
2023-01-15T05:43:51.896Z,100.00
2023-01-15T05:46:18.666Z,100.00
2023-01-15T05:48:45.391Z,100.00
2023-01-15T05:51:11.982Z,100.00
2023-01-15T05:53:38.672Z,100.00
2023-01-15T05:56:05.632Z,100.00
2023-01-15T05:58:32.973Z,100.00
2023-01-15T06:01:00.277Z,100.00
2023-01-15T06:03:30.056Z,100.00
2023-01-15T06:05:56.740Z,100.00
2023-01-15T06:08:23.773Z,100.00
2023-01-15T06:10:50.621Z,100.00
2023-01-15T06:13:18.082Z,100.00
2023-01-15T06:15:44.870Z,100.00
2023-01-15T06:18:12.218Z,100.00
2023-01-15T06:20:40.036Z,100.00
2023-01-15T06:23:06.926Z,100.00
2023-01-15T06:25:37.023Z,100.00
2023-01-15T06:28:07.940Z,100.00
2023-01-15T06:30:37.420Z,100.00
2023-01-15T06:33:08.317Z,100.00
2023-01-15T06:35:35.809Z,100.00
2023-01-15T06:38:02.860Z,100.00
2023-01-15T06:40:30.472Z,100.00
2023-01-15T06:43:00.484Z,100.00
2023-01-15T06:45:27.394Z,100.00
2023-01-15T06:47:54.413Z,100.00
2023-01-15T06:50:21.520Z,100.00
2023-01-15T06:52:48.528Z,100.00
2023-01-15T06:55:15.454Z,100.00
2023-01-15T06:57:42.330Z,100.00
2023-01-15T07:00:10.109Z,100.00
2023-01-15T07:02:37.246Z,100.00
2023-01-15T07:05:04.611Z,100.00
2023-01-15T07:07:31.702Z,100.00
2023-01-15T07:09:58.685Z,100.00
2023-01-15T07:12:25.637Z,100.00
2023-01-15T07:14:52.979Z,100.00
2023-01-15T07:17:19.895Z,100.00
2023-01-15T07:19:47.417Z,100.00
2023-01-15T07:22:14.516Z,100.00
2023-01-15T07:24:41.420Z,100.00
2023-01-15T07:27:08.373Z,100.00
2023-01-15T07:29:35.491Z,100.00
2023-01-15T07:32:02.435Z,100.00
2023-01-15T07:34:29.324Z,100.00
2023-01-15T07:36:56.238Z,100.00
2023-01-15T07:39:23.324Z,100.00
2023-01-15T07:41:50.410Z,100.00
2023-01-15T07:44:17.380Z,100.00
2023-01-15T07:46:44.226Z,100.00
2023-01-15T07:49:12.247Z,100.00
2023-01-15T07:51:39.105Z,100.00
2023-01-15T07:54:05.984Z,100.00
2023-01-15T07:56:32.930Z,100.00
2023-01-15T07:59:03.028Z,100.00
2023-01-15T08:01:30.095Z,100.00
2023-01-15T08:03:57.060Z,100.00
2023-01-15T08:06:24.013Z,100.00
2023-01-15T08:08:53.941Z,100.00
2023-01-15T08:11:20.861Z,100.00
2023-01-15T08:13:47.892Z,100.00
2023-01-15T08:16:15.331Z,100.00
2023-01-15T08:18:42.308Z,100.00
2023-01-15T08:21:17.094Z,100.00
2023-01-15T08:23:43.953Z,100.00
2023-01-15T08:26:10.937Z,100.00
2023-01-15T08:28:37.880Z,100.00
2023-01-15T08:31:06.614Z,100.00
2023-01-15T08:33:33.708Z,100.00
2023-01-15T08:36:00.664Z,100.00
2023-01-15T08:38:27.569Z,100.00
2023-01-15T08:40:55.126Z,100.00
2023-01-15T08:43:21.845Z,100.00
2023-01-15T08:45:48.598Z,100.00
2023-01-15T08:48:15.208Z,100.00
2023-01-15T08:50:41.782Z,100.00
2023-01-15T08:53:08.359Z,100.00
2023-01-15T08:55:34.965Z,100.00
2023-01-15T08:58:01.604Z,100.00
2023-01-15T09:00:28.204Z,100.00
2023-01-15T09:02:54.801Z,100.00
2023-01-15T09:05:21.385Z,100.00
2023-01-15T09:07:47.972Z,100.00
2023-01-15T09:10:14.646Z,100.00
2023-01-15T09:12:41.305Z,100.00
2023-01-15T09:15:08.425Z,100.00
2023-01-15T09:17:35.015Z,100.00
2023-01-15T09:20:01.621Z,100.00
2023-01-15T09:22:28.210Z,100.00
2023-01-15T09:24:54.891Z,100.00
2023-01-15T09:27:21.490Z,100.00
2023-01-15T09:29:48.106Z,100.00
2023-01-15T09:32:14.730Z,100.00
2023-01-15T09:34:41.417Z,100.00
2023-01-15T09:37:08.029Z,100.00
2023-01-15T09:39:34.644Z,100.00
2023-01-15T09:42:07.018Z,100.00
2023-01-15T09:44:48.653Z,100.00
2023-01-15T09:47:15.184Z,100.00
2023-01-15T09:49:55.000Z,100.00
2023-01-15T09:52:36.640Z,100.00
2023-01-15T09:55:12.039Z,100.00
2023-01-15T09:57:40.746Z,100.00
2023-01-15T10:00:17.914Z,100.00
2023-01-15T10:02:49.227Z,100.00
2023-01-15T10:05:22.889Z,100.00
2023-01-15T10:08:21.485Z,100.00
2023-01-15T10:10:54.317Z,100.00
2023-01-15T10:13:36.719Z,100.00
2023-01-15T10:16:03.591Z,100.00
2023-01-15T10:18:30.306Z,100.00
2023-01-15T10:21:34.087Z,100.00
2023-01-15T10:24:18.369Z,100.00
2023-01-15T10:26:57.712Z,100.00
2023-01-15T10:29:39.396Z,100.00
2023-01-15T10:32:21.100Z,100.00
2023-01-15T10:35:17.354Z,100.00
2023-01-15T10:37:48.055Z,100.00
2023-01-15T10:40:39.300Z,100.00
2023-01-15T10:43:10.138Z,100.00
2023-01-15T10:45:45.007Z,100.00
2023-01-15T10:48:38.883Z,100.00
2023-01-15T10:51:18.874Z,100.00
2023-01-15T10:53:54.339Z,100.00
2023-01-15T10:56:47.273Z,100.00
2023-01-15T10:59:23.249Z,100.00
2023-01-15T11:01:53.680Z,100.00
2023-01-15T11:04:20.814Z,100.00
2023-01-15T11:06:47.782Z,97.43
2023-01-15T11:09:23.486Z,98.59
2023-01-15T11:12:19.090Z,100.00
2023-01-15T11:14:46.714Z,100.00
2023-01-15T11:17:14.969Z,98.35
2023-01-15T11:19:43.458Z,97.26
2023-01-15T11:22:16.437Z,97.78
2023-01-15T11:25:02.064Z,100.00
2023-01-15T11:27:31.494Z,98.55
2023-01-15T11:30:03.340Z,98.23
2023-01-15T11:32:36.026Z,99.64
2023-01-15T11:35:04.322Z,100.00
2023-01-15T11:37:31.157Z,96.89
2023-01-15T11:39:59.876Z,98.31
2023-01-15T11:42:26.471Z,97.63
2023-01-15T11:44:56.854Z,100.00
2023-01-15T11:47:23.502Z,98.24
2023-01-15T11:49:54.680Z,97.71
2023-01-15T11:52:24.538Z,97.60
2023-01-15T11:54:54.414Z,98.23
2023-01-15T11:57:40.333Z,100.00
2023-01-15T12:00:07.942Z,95.67
2023-01-15T12:02:40.738Z,99.21
2023-01-15T12:05:22.700Z,100.00
2023-01-15T12:07:54.393Z,99.30
2023-01-15T12:10:26.590Z,98.43
2023-01-15T12:13:05.560Z,97.28
2023-01-15T12:15:42.601Z,99.24
2023-01-15T12:18:50.236Z,94.45
2023-01-15T12:21:37.977Z,99.27
2023-01-15T12:24:54.476Z,98.02
2023-01-15T12:27:33.923Z,97.70
2023-01-15T12:30:25.498Z,98.44
2023-01-15T12:33:10.546Z,99.04
2023-01-15T12:36:07.116Z,97.08
2023-01-15T12:38:40.890Z,95.19
2023-01-15T12:41:30.623Z,95.63
2023-01-15T12:43:59.472Z,96.95
2023-01-15T12:46:29.654Z,96.43
2023-01-15T12:49:15.129Z,97.50
2023-01-15T12:52:00.600Z,94.88
2023-01-15T12:54:38.547Z,95.26
2023-01-15T12:57:31.318Z,94.02
2023-01-15T13:00:11.716Z,93.99
2023-01-15T13:03:05.543Z,95.05
2023-01-15T13:05:39.852Z,91.25
2023-01-15T13:08:24.250Z,94.67
2023-01-15T13:10:51.808Z,94.39
2023-01-15T13:13:19.288Z,93.64
2023-01-15T13:16:04.042Z,91.58
2023-01-15T13:18:42.937Z,90.99
2023-01-15T13:21:15.518Z,91.00
2023-01-15T13:24:00.516Z,92.38
2023-01-15T13:26:45.931Z,91.69
2023-01-15T13:29:22.450Z,95.45
2023-01-15T13:32:04.487Z,92.38
2023-01-15T13:34:43.248Z,93.46
2023-01-15T13:37:15.537Z,92.03
2023-01-15T13:39:44.847Z,95.45
2023-01-15T13:42:26.431Z,93.48
2023-01-15T13:44:54.305Z,94.51
2023-01-15T13:47:25.417Z,89.86
2023-01-15T13:50:05.875Z,93.91
2023-01-15T13:52:37.228Z,91.66
2023-01-15T13:55:12.869Z,91.43
2023-01-15T13:57:41.301Z,92.67
2023-01-15T14:00:28.188Z,91.25
2023-01-15T14:02:58.045Z,94.10
2023-01-15T14:05:29.287Z,93.34
2023-01-15T14:07:55.990Z,90.28
2023-01-15T14:10:40.764Z,92.27
2023-01-15T14:13:50.116Z,89.92
2023-01-15T14:16:37.358Z,90.10
2023-01-15T14:19:41.750Z,91.44
2023-01-15T14:22:36.365Z,92.17
2023-01-15T14:25:27.351Z,95.14
2023-01-15T14:28:10.054Z,94.57
2023-01-15T14:30:39.666Z,95.17
2023-01-15T14:33:28.000Z,92.36
2023-01-15T14:35:55.259Z,93.71
2023-01-15T14:38:27.827Z,93.84
2023-01-15T14:41:03.278Z,94.16
2023-01-15T14:43:33.618Z,93.84
2023-01-15T14:46:14.674Z,94.81
2023-01-15T14:48:41.379Z,94.85
2023-01-15T14:51:18.544Z,94.14
2023-01-15T14:53:53.456Z,92.37
2023-01-15T14:56:24.151Z,94.97
2023-01-15T14:59:04.364Z,94.99
2023-01-15T15:01:44.517Z,94.52
2023-01-15T15:04:39.095Z,95.98
2023-01-15T15:07:18.731Z,95.51
2023-01-15T15:10:04.008Z,96.43
2023-01-15T15:12:37.752Z,96.25
2023-01-15T15:15:26.141Z,96.36
2023-01-15T15:18:02.801Z,96.69
2023-01-15T15:21:09.897Z,97.75
2023-01-15T15:24:10.368Z,97.37
2023-01-15T15:26:38.399Z,96.80
2023-01-15T15:29:15.196Z,97.18
2023-01-15T15:31:50.511Z,98.05
2023-01-15T15:34:35.850Z,97.65
2023-01-15T15:37:06.631Z,97.65
2023-01-15T15:39:45.022Z,98.88
2023-01-15T15:42:20.949Z,97.86
2023-01-15T15:44:54.963Z,96.96
2023-01-15T15:47:24.727Z,97.89
2023-01-15T15:49:51.383Z,98.44
2023-01-15T15:52:22.352Z,97.99
2023-01-15T15:54:59.780Z,99.48
2023-01-15T15:57:29.645Z,99.14
2023-01-15T15:59:56.660Z,93.96
2023-01-15T16:02:32.116Z,96.60
2023-01-15T16:05:01.773Z,96.17
2023-01-15T16:07:33.886Z,98.10
2023-01-15T16:10:07.609Z,93.75
2023-01-15T16:12:42.314Z,95.23
2023-01-15T16:15:16.997Z,98.87
2023-01-15T16:17:45.142Z,100.00
2023-01-15T16:20:17.881Z,97.01
2023-01-15T16:23:05.239Z,96.53
2023-01-15T16:25:41.570Z,98.17
2023-01-15T16:28:25.167Z,97.16
2023-01-15T16:31:00.248Z,98.55
2023-01-15T16:33:27.481Z,99.79
2023-01-15T16:36:01.685Z,99.02
2023-01-15T16:38:28.353Z,98.74
2023-01-15T16:40:55.018Z,97.91
2023-01-15T16:43:24.918Z,97.27
2023-01-15T16:45:57.253Z,97.65
2023-01-15T16:48:30.005Z,98.12
2023-01-15T16:50:56.947Z,98.78
2023-01-15T16:53:35.645Z,99.11
2023-01-15T16:56:03.125Z,99.75
2023-01-15T16:58:37.118Z,99.95
2023-01-15T17:01:25.085Z,100.00
2023-01-15T17:03:52.566Z,99.08
2023-01-15T17:06:26.351Z,99.54
2023-01-15T17:08:54.666Z,100.00
2023-01-15T17:11:29.390Z,100.00
2023-01-15T17:14:22.385Z,99.50
2023-01-15T17:16:49.129Z,100.00
2023-01-15T17:19:16.727Z,100.00
2023-01-15T17:21:43.711Z,100.00
2023-01-15T17:24:11.992Z,100.00
2023-01-15T17:26:38.764Z,100.00
2023-01-15T17:29:05.393Z,100.00
2023-01-15T17:31:33.695Z,100.00
2023-01-15T17:34:02.358Z,100.00
2023-01-15T17:36:31.142Z,100.00
2023-01-15T17:38:57.789Z,100.00
2023-01-15T17:41:24.444Z,100.00
2023-01-15T17:43:51.117Z,100.00
2023-01-15T17:46:17.748Z,100.00
2023-01-15T17:48:44.452Z,100.00
2023-01-15T17:51:14.021Z,100.00
2023-01-15T17:53:40.884Z,100.00
2023-01-15T17:56:07.852Z,100.00
2023-01-15T17:58:34.467Z,100.00
2023-01-15T18:01:05.516Z,100.00
2023-01-15T18:03:32.714Z,100.00
2023-01-15T18:05:59.321Z,100.00
2023-01-15T18:08:25.956Z,100.00
2023-01-15T18:10:52.539Z,100.00
2023-01-15T18:13:19.314Z,100.00
2023-01-15T18:15:45.988Z,100.00
2023-01-15T18:18:12.616Z,100.00
2023-01-15T18:20:39.368Z,100.00
2023-01-15T18:23:06.001Z,100.00
2023-01-15T18:25:34.372Z,100.00
2023-01-15T18:28:01.083Z,100.00
2023-01-15T18:30:27.709Z,100.00
2023-01-15T18:32:54.544Z,100.00
2023-01-15T18:35:21.273Z,100.00
2023-01-15T18:37:47.911Z,100.00
2023-01-15T18:40:14.805Z,100.00
2023-01-15T18:42:41.708Z,100.00
2023-01-15T18:45:09.606Z,100.00
2023-01-15T18:47:36.420Z,100.00
2023-01-15T18:50:03.040Z,100.00
2023-01-15T18:52:29.631Z,100.00
2023-01-15T18:54:56.344Z,100.00
2023-01-15T18:57:23.905Z,100.00
2023-01-15T18:59:51.384Z,100.00
2023-01-15T19:02:20.129Z,100.00
2023-01-15T19:04:47.832Z,100.00
2023-01-15T19:07:14.638Z,100.00
2023-01-15T19:09:41.212Z,100.00
2023-01-15T19:12:07.886Z,100.00
2023-01-15T19:14:34.738Z,100.00
2023-01-15T19:17:01.363Z,100.00
2023-01-15T19:19:28.016Z,100.00
2023-01-15T19:21:55.274Z,100.00
2023-01-15T19:24:22.121Z,100.00
2023-01-15T19:26:48.753Z,100.00
2023-01-15T19:29:15.367Z,100.00
2023-01-15T19:31:42.015Z,100.00
2023-01-15T19:34:32.158Z,100.00
2023-01-15T19:36:55.193Z,100.00
2023-01-15T19:39:21.792Z,100.00
2023-01-15T19:41:48.365Z,100.00
2023-01-15T19:44:15.099Z,100.00
2023-01-15T19:46:41.988Z,100.00
2023-01-15T19:49:18.768Z,100.00
2023-01-15T19:51:45.458Z,100.00
2023-01-15T19:54:12.049Z,100.00
2023-01-15T19:56:38.645Z,100.00
2023-01-15T19:59:05.313Z,100.00
2023-01-15T20:01:32.026Z,100.00
2023-01-15T20:03:58.681Z,100.00
2023-01-15T20:06:25.276Z,100.00
2023-01-15T20:08:51.877Z,100.00
2023-01-15T20:11:18.489Z,100.00
2023-01-15T20:13:45.101Z,100.00
2023-01-15T20:16:14.432Z,100.00
2023-01-15T20:18:41.044Z,100.00
2023-01-15T20:21:07.931Z,100.00
2023-01-15T20:23:34.616Z,100.00
2023-01-15T20:26:06.472Z,100.00
2023-01-15T20:28:33.203Z,100.00
2023-01-15T20:30:59.834Z,100.00
2023-01-15T20:33:26.453Z,100.00
2023-01-15T20:35:53.460Z,100.00
2023-01-15T20:38:21.372Z,100.00
2023-01-15T20:40:47.971Z,100.00
2023-01-15T20:43:14.684Z,100.00
2023-01-15T20:45:41.372Z,100.00
2023-01-15T20:48:08.478Z,100.00
2023-01-15T20:50:37.472Z,100.00
2023-01-15T20:53:06.473Z,100.00
2023-01-15T20:55:38.902Z,100.00
2023-01-15T20:58:12.473Z,100.00
2023-01-15T21:00:39.175Z,100.00
2023-01-15T21:03:05.785Z,100.00
2023-01-15T21:05:32.588Z,100.00
2023-01-15T21:07:59.158Z,100.00
2023-01-15T21:10:25.964Z,100.00
2023-01-15T21:12:52.970Z,100.00
2023-01-15T21:15:19.922Z,100.00
2023-01-15T21:17:47.295Z,100.00
2023-01-15T21:20:16.239Z,100.00
2023-01-15T21:22:43.595Z,100.00
2023-01-15T21:25:10.570Z,100.00
2023-01-15T21:27:37.944Z,100.00
2023-01-15T21:30:06.031Z,100.00
2023-01-15T21:32:32.655Z,100.00
2023-01-15T21:34:59.276Z,100.00
2023-01-15T21:37:25.859Z,100.00
2023-01-15T21:39:52.469Z,100.00
2023-01-15T21:42:21.088Z,100.00
2023-01-15T21:44:47.708Z,100.00
2023-01-15T21:47:16.122Z,100.00
2023-01-15T21:49:43.388Z,100.00
2023-01-15T21:52:15.437Z,100.00
2023-01-15T21:54:42.282Z,100.00
2023-01-15T21:57:09.244Z,100.00
2023-01-15T21:59:36.266Z,100.00
2023-01-15T22:02:04.354Z,100.00
2023-01-15T22:04:34.759Z,100.00
2023-01-15T22:07:02.257Z,100.00
2023-01-15T22:09:28.915Z,100.00
2023-01-15T22:11:55.610Z,100.00
2023-01-15T22:14:29.756Z,100.00
2023-01-15T22:16:58.567Z,100.00
2023-01-15T22:19:27.148Z,100.00
2023-01-15T22:21:59.625Z,100.00
2023-01-15T22:24:32.076Z,100.00
2023-01-15T22:27:00.109Z,100.00
2023-01-15T22:29:32.300Z,100.00
2023-01-15T22:31:59.486Z,100.00
2023-01-15T22:34:28.121Z,100.00
2023-01-15T22:36:55.622Z,100.00
2023-01-15T22:39:23.598Z,100.00
2023-01-15T22:41:51.047Z,100.00
2023-01-15T22:44:17.632Z,100.00
2023-01-15T22:46:44.344Z,100.00
2023-01-15T22:49:11.280Z,100.00
2023-01-15T22:51:37.886Z,100.00
2023-01-15T22:54:04.656Z,100.00
2023-01-15T22:56:31.370Z,100.00
2023-01-15T22:58:57.959Z,100.00
2023-01-15T23:01:24.661Z,100.00
2023-01-15T23:03:51.440Z,100.00
2023-01-15T23:06:18.166Z,100.00
2023-01-15T23:08:45.027Z,100.00
2023-01-15T23:11:14.800Z,100.00
2023-01-15T23:13:42.139Z,100.00
2023-01-15T23:16:10.001Z,100.00
2023-01-15T23:18:36.746Z,100.00
2023-01-15T23:21:09.037Z,100.00
2023-01-15T23:23:36.010Z,100.00
2023-01-15T23:26:04.039Z,100.00
2023-01-15T23:28:31.448Z,100.00
2023-01-15T23:30:58.142Z,100.00
2023-01-15T23:33:25.421Z,100.00
2023-01-15T23:35:53.342Z,100.00
2023-01-15T23:38:21.006Z,100.00
2023-01-15T23:40:47.851Z,100.00
2023-01-15T23:43:16.707Z,100.00
2023-01-15T23:45:43.325Z,100.00
2023-01-15T23:48:10.073Z,100.00
2023-01-15T23:50:36.663Z,100.00
2023-01-15T23:53:03.302Z,100.00
2023-01-15T23:55:29.915Z,100.00
2023-01-15T23:57:57.323Z,100.00
